D/T METAR WX W/DIR W/SPE G/SPE TEMP DEWP
23/05/19 13:20 EGPK 231220Z 24014KT 9999 FEW032 14/08 Q1015 WSW (240°) 16.1mph 14°C 8°C
23/05/19 12:50 EGPK 231150Z 23012KT 9999 SCT032 13/08 Q1015 SW (230°) 13.8mph 13°C 8°C
23/05/19 12:20 EGPK 231120Z 25011KT 200V270 9999 SCT032 14/08 Q1015 WSW (250°) 12.7mph 14°C 8°C
23/05/19 11:50 EGPK 231050Z 25012KT 9999 SCT032 14/08 Q1015 WSW (250°) 13.8mph 14°C 8°C
23/05/19 11:20 EGPK 231020Z 24010KT 210V270 9999 FEW030 13/08 Q1015 WSW (240°) 11.5mph 13°C 8°C
23/05/19 10:50 EGPK 230950Z 23012KT 9999 FEW030 13/07 Q1015 SW (230°) 13.8mph 13°C 7°C
23/05/19 10:20 EGPK 230920Z 23011KT 9999 FEW030 13/08 Q1015 SW (230°) 12.7mph 13°C 8°C
23/05/19 09:50 EGPK 230850Z 24011KT 9999 FEW030 12/07 Q1015 WSW (240°) 12.7mph 12°C 7°C
23/05/19 09:20 EGPK 230820Z 25011KT 9999 FEW030 12/07 Q1015 WSW (250°) 12.7mph 12°C 7°C
23/05/19 08:50 EGPK 230750Z 25010KT 220V280 9999 FEW030 11/07 Q1016 WSW (250°) 11.5mph 11°C 7°C
23/05/19 08:20 EGPK 230720Z 24009KT 9999 FEW030 11/07 Q1016 WSW (240°) 10.4mph 11°C 7°C
23/05/19 07:50 EGPK 230650Z 23009KT 9999 FEW030 10/07 Q1016 SW (230°) 10.4mph 10°C 7°C
23/05/19 07:20 EGPK 230620Z 23006KT 190V260 9999 FEW030 10/06 Q1015 SW (230°) 6.9mph 10°C 6°C
23/05/19 06:50 EGPK 230550Z VRB02KT 9999 FEW030 09/07 Q1015 N (0°) 2.3mph 9°C 7°C
23/05/19 05:50 EGPK 230450Z 12004KT 9999 FEW033 06/05 Q1015 ESE (120°) 4.6mph 6°C 5°C
23/05/19 04:50 EGPK 230350Z 00000KT 9999 FEW033 07/06 Q1016 N (0°) 7°C 6°C
23/05/19 03:50 EGPK 230250Z 00000KT 9999 FEW030 07/05 Q1016 N (0°) 7°C 5°C
23/05/19 02:50 EGPK 230150Z 10003KT 9999 SCT035 06/04 Q1016 E (100°) 3.5mph 6°C 4°C
23/05/19 01:50 EGPK 230050Z 12003KT 9999 FEW028 07/04 Q1016 ESE (120°) 3.5mph 7°C 4°C
23/05/19 00:50 EGPK 222350Z 29005KT 9999 FEW028 09/06 Q1017 WNW (290°) 5.8mph 9°C 6°C
23/05/19 00:20 EGPK 222320Z 29005KT 9999 FEW028 09/06 Q1017 WNW (290°) 5.8mph 9°C 6°C
22/05/19 23:50 EGPK 222250Z 29008KT 9999 FEW028 10/06 Q1017 WNW (290°) 9.2mph 10°C 6°C
22/05/19 23:20 EGPK 222220Z 29008KT 9999 FEW025 10/06 Q1017 WNW (290°) 9.2mph 10°C 6°C
22/05/19 22:50 EGPK 222150Z 29008KT 9999 FEW025 10/07 Q1017 WNW (290°) 9.2mph 10°C 7°C
22/05/19 22:20 EGPK 222120Z 29009KT 9999 FEW022 10/06 Q1017 WNW (290°) 10.4mph 10°C 6°C
22/05/19 21:20 EGPK 222020Z 30007KT 9999 FEW022 11/06 Q1017 WNW (300°) 8.1mph 11°C 6°C
22/05/19 20:50 EGPK 221950Z 29011KT 9999 FEW020 11/06 Q1017 WNW (290°) 12.7mph 11°C 6°C
22/05/19 20:20 EGPK 221920Z 30010KT 9999 FEW020 12/06 Q1017 WNW (300°) 11.5mph 12°C 6°C
22/05/19 19:50 EGPK 221850Z 30010KT 9999 SCT020 13/05 Q1017 WNW (300°) 11.5mph 13°C 5°C
22/05/19 19:20 EGPK 221820Z 30011KT 9999 SCT020 13/05 Q1017 WNW (300°) 12.7mph 13°C 5°C
22/05/19 18:50 EGPK 221750Z 29010KT 9999 SCT022 14/06 Q1017 WNW (290°) 11.5mph 14°C 6°C
22/05/19 18:20 EGPK 221720Z 29008KT 9999 SCT024 14/05 Q1017 WNW (290°) 9.2mph 14°C 5°C
22/05/19 17:50 EGPK 221650Z 24010KT 9999 SCT024 14/07 Q1017 WSW (240°) 11.5mph 14°C 7°C
22/05/19 16:50 EGPK 221550Z 24011KT 9999 SCT024 14/07 Q1018 WSW (240°) 12.7mph 14°C 7°C
22/05/19 16:20 EGPK 221520Z 24008KT 200V280 9999 SCT024 14/07 Q1018 WSW (240°) 9.2mph 14°C 7°C
22/05/19 15:50 EGPK 221450Z 24008KT 210V280 9999 SCT022 15/06 Q1018 WSW (240°) 9.2mph 15°C 6°C
22/05/19 15:20 EGPK 221420Z 24009KT 210V290 9999 SCT022 14/06 Q1018 WSW (240°) 10.4mph 14°C 6°C
22/05/19 14:50 EGPK 221350Z 25008KT 210V290 9999 SCT022 14/06 Q1018 WSW (250°) 9.2mph 14°C 6°C
22/05/19 14:20 EGPK 221320Z 26009KT 220V290 9999 SCT020 14/07 Q1018 W (260°) 10.4mph 14°C 7°C
22/05/19 13:50 EGPK 221250Z 26009KT 220V290 9999 SCT021 14/07 Q1018 W (260°) 10.4mph 14°C 7°C
22/05/19 12:50 EGPK 221150Z 25009KT 200V290 9999 SCT021 14/06 Q1019 WSW (250°) 10.4mph 14°C 6°C
22/05/19 12:20 EGPK 221120Z 25009KT 220V280 9999 SCT021 13/06 Q1019 WSW (250°) 10.4mph 13°C 6°C
22/05/19 11:50 EGPK 221050Z 28009KT 240V310 9999 SCT020 13/06 Q1019 W (280°) 10.4mph 13°C 6°C
22/05/19 11:20 EGPK 221020Z 27010KT 9999 SCT020 13/06 Q1019 W (270°) 11.5mph 13°C 6°C
22/05/19 10:50 EGPK 220950Z 27011KT 9999 SCT022 13/06 Q1019 W (270°) 12.7mph 13°C 6°C
22/05/19 10:20 EGPK 220920Z 26010KT 220V300 9999 SCT022 12/06 Q1019 W (260°) 11.5mph 12°C 6°C
22/05/19 09:50 EGPK 220850Z 29012KT 9999 SCT022 12/06 Q1019 WNW (290°) 13.8mph 12°C 6°C
22/05/19 09:20 EGPK 220820Z 29010KT 9999 FEW030 12/06 Q1019 WNW (290°) 11.5mph 12°C 6°C